Airfield :
LOGIN :

Register | Disclaimer

   EN    FR    IT 

 










Legend :    VFR   Marginal VFR   IFR   Intensive IFR   Very Intensive IFR
Visi :
Ceiling :
>= 8 km
>= 3000ft
5 to 8 km
1000 to 3000 ft
1500m to 5 km
500 to 1000 ft
800 to 1500m
200 to 500 ft
< 800m
< 200 ft
Symbols :   Thunderstorms  Fog  Heavy snow  Heavy precipitations  Wind > 20 kt
SIGMETs :     Misc.  Thunderstorms  Icing  Turbulence  Mountain Waves  Volcanic Ashes







- Airport Elevation : 37 ft
- IATA code : OLB


LIEO - Olbia Costa Smeralda

CURRENT METAR :
  • 171520Z 09009KT 050V110 CAVOK 29/19 Q1014

EXPIRED METARs :
  • 171450Z 08009KT CAVOK 29/20 Q1014
  • 171420Z 06010KT 030V090 CAVOK 29/21 Q1015
  • 171350Z 07010KT 030V090 CAVOK 29/20 Q1015
  • 171320Z 05012KT 020V100 CAVOK 30/20 Q1015
  • 171250Z 05012KT CAVOK 29/20 Q1015

TAF TAF LIEO
Valid from the 17 at 12:00 until the 18 at 12:00 UTC


171100Z 1712/1812 06010KT CAVOK
BECMG 1717/1719 VRB04KT
BECMG 1808/1810 06010KT
No reported NOTAMs for that airfield.



MET'MAP, your aeronautical weather chart ! - Copyright ORBIFLY December 2007 - Disclaimer

ORBIFLY MET'MAP TEAM :

Programming & Development : Alexandra Zaïnal
Concept & Development : Baudouin d'Aumeries
Co-Development & Prog : Marc-Olivier Méhu
Technical & hardware support : Manuel Goepfert

Contact : metmap@orbifly.com




SOURCES & CREDITS :

   NOAA